createdAt,value
2023-07-02T06:03:30.297Z,60.03
2023-07-02T06:18:05.039Z,57.34
2023-07-02T07:34:11.194Z,53.32
2023-07-02T07:34:45.527Z,53.24
2023-07-02T07:42:05.026Z,50.36
2023-07-02T08:25:11.187Z,47.37
2023-07-02T08:32:56.416Z,45.77
2023-07-02T08:33:30.248Z,45.47
2023-07-02T08:34:45.273Z,45.38
2023-07-02T08:37:44.100Z,45.73
2023-07-02T08:39:03.364Z,44.03
2023-07-02T08:39:42.164Z,43.44
2023-07-02T08:40:21.090Z,44.00
2023-07-02T08:40:57.055Z,44.48
2023-07-02T08:41:31.006Z,44.57
2023-07-02T08:47:25.045Z,42.76
2023-07-02T08:48:06.769Z,42.20
2023-07-02T08:48:42.988Z,42.15
2023-07-02T08:49:15.539Z,41.62
2023-07-02T08:49:54.675Z,41.09
2023-07-02T08:58:26.737Z,40.96
2023-07-02T09:28:45.974Z,37.53
2023-07-02T09:29:55.281Z,37.39
2023-07-02T09:30:30.547Z,36.50
2023-07-02T09:31:04.954Z,35.83
2023-07-02T09:32:07.304Z,35.88
2023-07-02T09:34:38.803Z,36.01
2023-07-02T09:36:28.242Z,36.84
2023-07-02T09:40:50.465Z,36.58
2023-07-02T09:42:11.844Z,35.58
2023-07-02T09:49:20.714Z,36.51
2023-07-02T09:55:43.166Z,37.99
2023-07-02T10:08:25.368Z,34.42
2023-07-02T10:09:02.203Z,33.72
2023-07-02T10:10:48.059Z,32.12
2023-07-02T10:11:22.373Z,31.70
2023-07-02T10:11:57.310Z,31.68
2023-07-02T10:12:50.589Z,31.35
2023-07-02T10:15:05.697Z,31.97
2023-07-02T10:15:43.887Z,30.98
2023-07-02T10:25:52.120Z,30.21
2023-07-02T10:26:28.446Z,30.01
2023-07-02T10:27:04.232Z,30.31
2023-07-02T10:27:45.404Z,30.07
2023-07-02T10:28:39.337Z,29.74
2023-07-02T10:31:24.453Z,29.98
2023-07-02T10:31:58.558Z,30.11
2023-07-02T10:45:36.107Z,32.19
2023-07-02T10:46:09.313Z,32.09
2023-07-02T10:46:45.990Z,32.12
2023-07-02T10:47:29.590Z,31.96
2023-07-02T10:48:34.265Z,32.11
2023-07-02T10:49:10.044Z,32.63
2023-07-02T10:59:31.486Z,34.22
2023-07-02T11:00:14.581Z,34.24
2023-07-02T11:04:58.333Z,32.54
2023-07-02T11:06:20.508Z,32.18
2023-07-02T11:07:35.210Z,32.30
2023-07-02T11:08:12.091Z,32.44
2023-07-02T11:08:47.622Z,32.08
2023-07-02T11:09:25.720Z,32.15
2023-07-02T11:10:09.768Z,32.56
2023-07-02T11:10:43.350Z,32.71
2023-07-02T11:11:16.651Z,32.53
2023-07-02T11:12:11.263Z,32.55
2023-07-02T11:12:45.925Z,32.44
2023-07-02T11:17:46.299Z,32.71
2023-07-02T11:19:16.108Z,32.48
2023-07-02T11:19:52.317Z,32.74
2023-07-02T11:20:44.436Z,32.32
2023-07-02T11:40:47.889Z,33.46
2023-07-02T11:41:29.779Z,33.15
2023-07-02T11:42:03.333Z,33.51
2023-07-02T11:44:38.348Z,34.49
2023-07-02T11:45:11.102Z,34.69
2023-07-02T11:45:45.452Z,34.78
2023-07-02T11:46:23.098Z,35.18
2023-07-02T11:46:58.749Z,35.56
2023-07-02T11:54:07.070Z,36.61
2023-07-02T11:54:39.689Z,36.57
2023-07-02T11:55:12.510Z,36.38
2023-07-02T11:55:45.007Z,36.40
2023-07-02T11:57:07.667Z,37.41
2023-07-02T11:58:45.839Z,37.43
2023-07-02T12:08:50.620Z,39.05
2023-07-02T12:09:23.131Z,39.32
2023-07-02T12:09:58.383Z,39.39
2023-07-02T12:10:31.189Z,39.16
2023-07-02T12:11:10.187Z,39.07
2023-07-02T12:14:16.729Z,39.16
2023-07-02T12:21:17.292Z,38.52
2023-07-02T12:24:35.963Z,38.78
2023-07-02T12:25:14.744Z,39.19
2023-07-02T12:25:52.807Z,38.24
2023-07-02T12:26:26.450Z,38.43
2023-07-02T12:26:59.057Z,38.35
2023-07-02T12:27:52.770Z,38.19
2023-07-02T12:28:25.320Z,38.61
2023-07-02T12:29:07.986Z,38.93
2023-07-02T12:29:40.625Z,38.44
2023-07-02T12:30:13.274Z,37.77
2023-07-02T12:30:48.217Z,37.20
2023-07-02T12:31:24.755Z,36.97
2023-07-02T12:32:44.094Z,36.94
2023-07-02T12:33:24.454Z,37.02
2023-07-02T12:33:57.855Z,36.71
2023-07-02T12:34:35.211Z,36.43
2023-07-02T12:35:08.202Z,36.54
2023-07-02T12:35:42.902Z,36.69
2023-07-02T12:36:15.532Z,36.46
2023-07-02T12:36:56.297Z,35.92
2023-07-02T12:37:33.755Z,35.65
2023-07-02T12:38:18.095Z,35.81
2023-07-02T12:39:34.002Z,36.69
2023-07-02T12:40:27.277Z,37.00
2023-07-02T12:41:03.369Z,36.97
2023-07-02T12:41:38.224Z,37.36
2023-07-02T12:42:11.747Z,37.67
2023-07-02T12:42:50.800Z,37.58
2023-07-02T12:43:24.578Z,37.21
2023-07-02T12:44:01.748Z,37.33
2023-07-02T12:44:34.248Z,37.18
2023-07-02T12:45:11.744Z,36.97
2023-07-02T12:45:44.269Z,37.02
2023-07-02T12:46:58.030Z,37.18
2023-07-02T12:47:30.630Z,37.65
2023-07-02T12:49:05.445Z,38.40
2023-07-02T12:51:23.215Z,38.39
2023-07-02T12:51:56.488Z,38.40
2023-07-02T12:52:32.576Z,38.62
2023-07-02T12:53:09.374Z,38.66
2023-07-02T12:53:43.483Z,38.01
2023-07-02T12:54:17.482Z,38.05
2023-07-02T12:54:53.322Z,38.27
2023-07-02T12:55:34.976Z,38.39
2023-07-02T12:59:19.913Z,39.09
2023-07-02T12:59:59.003Z,39.10
2023-07-02T13:00:34.383Z,39.27
2023-07-02T13:01:09.715Z,39.27
2023-07-02T13:01:42.375Z,39.00
2023-07-02T13:02:15.448Z,38.55
2023-07-02T13:03:34.725Z,38.27
2023-07-02T13:04:10.607Z,38.24
2023-07-02T13:04:46.261Z,38.48
2023-07-02T13:05:56.217Z,38.70
2023-07-02T13:06:30.747Z,38.25
2023-07-02T13:07:04.204Z,38.35
2023-07-02T13:07:36.797Z,38.52
2023-07-02T13:08:12.186Z,38.36
2023-07-02T13:08:46.238Z,38.26
2023-07-02T13:09:41.980Z,38.29
2023-07-02T13:10:16.825Z,39.16
2023-07-02T13:10:56.955Z,39.13
2023-07-02T13:11:29.549Z,38.95
2023-07-02T13:12:02.492Z,39.02
2023-07-02T13:12:35.085Z,38.92
2023-07-02T13:13:24.030Z,39.18
2023-07-02T13:14:06.331Z,39.26
2023-07-02T13:15:07.286Z,39.27
2023-07-02T13:17:08.121Z,39.68
2023-07-02T13:20:13.269Z,39.34
2023-07-02T13:22:21.437Z,39.90
2023-07-02T13:23:00.507Z,39.86
2023-07-02T13:23:34.505Z,39.91
2023-07-02T13:24:34.503Z,40.17
2023-07-02T13:25:10.286Z,39.98
2023-07-02T13:25:52.545Z,40.20
2023-07-02T13:26:47.308Z,40.41
2023-07-02T13:27:29.465Z,40.49
2023-07-02T13:30:11.415Z,40.38
2023-07-02T13:30:52.251Z,40.66
2023-07-02T13:31:32.072Z,40.41
2023-07-02T13:32:12.301Z,40.26
2023-07-02T13:32:46.715Z,40.53
2023-07-02T13:33:25.342Z,40.24
2023-07-02T13:33:57.912Z,40.36
2023-07-02T13:34:32.081Z,40.29
2023-07-02T13:35:06.579Z,39.69
2023-07-02T13:35:40.729Z,39.37
2023-07-02T13:36:18.275Z,39.50
2023-07-02T13:36:53.287Z,39.78
2023-07-02T13:38:14.204Z,39.58
2023-07-02T13:38:49.570Z,39.71
2023-07-02T13:39:22.192Z,40.10
2023-07-02T13:39:58.183Z,40.30
2023-07-02T13:46:50.436Z,41.00
2023-07-02T13:57:17.824Z,40.48
2023-07-02T13:57:53.443Z,40.78
2023-07-02T13:59:23.841Z,40.29
2023-07-02T14:00:01.178Z,40.61
2023-07-02T14:00:41.876Z,40.20
2023-07-02T14:12:13.591Z,39.77
2023-07-02T14:17:04.185Z,39.82
2023-07-02T14:17:39.115Z,40.20
2023-07-02T14:18:11.709Z,40.20
2023-07-02T14:18:50.032Z,40.07
2023-07-02T14:19:31.136Z,40.25
2023-07-02T14:32:23.281Z,39.06
2023-07-02T14:32:55.894Z,38.64
2023-07-02T14:48:02.669Z,39.15
2023-07-02T14:48:41.896Z,39.18
2023-07-02T14:49:17.395Z,39.42
2023-07-02T14:49:58.429Z,39.35
2023-07-02T14:50:56.236Z,39.39
2023-07-02T14:52:29.054Z,39.28
2023-07-02T14:53:01.602Z,39.36
2023-07-02T14:53:37.421Z,39.69
2023-07-02T14:54:12.074Z,39.81
2023-07-02T14:54:48.009Z,39.74
2023-07-02T15:10:34.179Z,41.02
2023-07-02T15:11:22.431Z,40.62
2023-07-02T15:11:54.994Z,40.34
2023-07-02T15:15:28.951Z,40.99
2023-07-02T15:16:15.258Z,41.12
2023-07-02T15:16:52.410Z,41.03
2023-07-02T15:17:32.136Z,41.35
2023-07-02T15:25:54.845Z,41.16
2023-07-02T15:28:21.839Z,41.37
2023-07-02T15:28:55.554Z,41.36
2023-07-02T15:29:28.174Z,41.35
2023-07-02T15:30:03.653Z,41.27
2023-07-02T15:30:42.172Z,41.16
2023-07-02T15:32:07.411Z,41.59
2023-07-02T15:33:49.540Z,41.63
2023-07-02T15:35:44.834Z,42.06
2023-07-02T15:41:28.150Z,42.99
2023-07-02T15:42:02.166Z,42.85
2023-07-02T15:43:49.897Z,42.59
2023-07-02T15:44:27.628Z,42.70
2023-07-02T15:45:28.785Z,42.75
2023-07-02T15:46:03.629Z,42.75
2023-07-02T15:46:37.471Z,42.73
2023-07-02T15:47:10.148Z,42.77
2023-07-02T15:47:44.793Z,42.75
2023-07-02T15:48:17.534Z,42.55
2023-07-02T15:48:55.728Z,42.77
2023-07-02T15:49:28.272Z,42.90
2023-07-02T15:50:01.964Z,42.99
2023-07-02T15:50:34.510Z,42.92
2023-07-02T15:52:38.545Z,42.69
2023-07-02T15:53:14.668Z,42.93
2023-07-02T15:53:52.366Z,42.90
2023-07-02T15:55:17.049Z,42.85
2023-07-02T15:56:10.391Z,42.79
2023-07-02T15:56:50.338Z,42.82
2023-07-02T15:57:27.307Z,42.88
2023-07-02T15:58:00.379Z,42.82
2023-07-02T15:58:55.040Z,43.06
2023-07-02T15:59:40.510Z,43.04
2023-07-02T16:09:09.081Z,43.15
2023-07-02T16:10:03.808Z,42.87
2023-07-02T16:10:52.100Z,41.87
2023-07-02T16:11:25.637Z,41.44
2023-07-02T16:12:04.182Z,41.56
2023-07-02T16:15:27.641Z,41.97
2023-07-02T16:16:02.907Z,42.09
2023-07-02T16:16:36.948Z,42.34
2023-07-02T16:18:10.709Z,42.44
2023-07-02T16:18:50.274Z,42.71
2023-07-02T16:20:31.665Z,43.14
2023-07-02T16:21:05.980Z,43.01
2023-07-02T16:21:43.670Z,42.92
2023-07-02T16:23:10.737Z,42.08
2023-07-02T16:23:46.020Z,42.19
2023-07-02T16:24:48.596Z,41.79
2023-07-02T16:25:22.257Z,40.85
2023-07-02T16:26:04.056Z,40.84
2023-07-02T16:26:41.469Z,41.03
2023-07-02T16:27:15.267Z,41.23
2023-07-02T16:28:41.309Z,41.60
2023-07-02T16:29:34.378Z,41.70
2023-07-02T16:31:08.079Z,41.71
2023-07-02T16:31:45.648Z,41.92
2023-07-02T16:51:54.984Z,37.92
2023-07-02T16:52:27.934Z,37.61
2023-07-02T16:53:03.233Z,37.40
2023-07-02T16:53:39.760Z,37.42
2023-07-02T16:54:34.303Z,37.44
2023-07-02T16:55:12.733Z,37.74
2023-07-02T16:55:45.501Z,37.87
2023-07-02T16:56:18.098Z,38.09
2023-07-02T16:57:03.464Z,37.94
2023-07-02T16:57:39.946Z,38.11
2023-07-02T16:58:19.120Z,38.14
2023-07-02T16:59:11.600Z,38.36
2023-07-02T16:59:44.185Z,38.48
2023-07-02T17:00:17.262Z,38.59
2023-07-02T17:01:00.165Z,38.75
2023-07-02T17:01:32.737Z,38.91
2023-07-02T17:02:09.265Z,38.93
2023-07-02T17:02:42.355Z,39.01
2023-07-02T17:03:16.278Z,39.01
2023-07-02T17:03:51.801Z,39.04
2023-07-02T17:04:26.781Z,39.20
2023-07-02T17:05:04.131Z,39.21
2023-07-02T17:05:38.379Z,39.42
2023-07-02T17:06:11.126Z,39.54
2023-07-02T17:06:52.915Z,39.61
2023-07-02T17:07:25.830Z,39.74
2023-07-02T17:09:51.923Z,39.90
2023-07-02T17:10:24.515Z,40.30
2023-07-02T17:10:57.060Z,40.57
2023-07-02T17:11:29.741Z,40.65
2023-07-02T17:12:09.819Z,40.84
2023-07-02T17:12:42.398Z,40.86
2023-07-02T17:13:19.233Z,40.98
2023-07-02T17:13:52.141Z,41.15
2023-07-02T17:14:31.582Z,41.16
2023-07-02T17:15:07.525Z,41.18
2023-07-02T17:15:40.112Z,41.28
2023-07-02T17:16:13.461Z,41.34
2023-07-02T17:16:46.066Z,41.59
2023-07-02T17:17:21.268Z,41.84
2023-07-02T17:17:54.044Z,41.96
2023-07-02T17:18:26.635Z,42.02
2023-07-02T17:18:59.270Z,42.21
2023-07-02T17:19:52.517Z,42.32
2023-07-02T17:20:29.796Z,42.56
2023-07-02T17:21:05.672Z,42.54
2023-07-02T17:23:45.986Z,43.22
2023-07-02T17:24:29.863Z,43.32
2023-07-02T17:25:04.142Z,43.48
2023-07-02T17:25:39.782Z,43.63
2023-07-02T17:26:12.298Z,43.85
2023-07-02T17:26:44.955Z,44.01
2023-07-02T17:27:21.010Z,44.20
2023-07-02T17:27:56.087Z,44.36
2023-07-02T17:28:37.804Z,44.60
2023-07-02T17:29:11.642Z,44.68
2023-07-02T17:29:51.242Z,44.76
2023-07-02T17:30:23.802Z,44.88
2023-07-02T17:30:59.350Z,45.01
2023-07-02T17:31:32.327Z,45.11
2023-07-02T17:32:10.181Z,45.09
2023-07-02T17:32:42.822Z,45.07
2023-07-02T17:33:18.117Z,45.07
2023-07-02T17:33:50.740Z,45.13
2023-07-02T17:34:29.089Z,45.09
2023-07-02T17:35:04.373Z,45.15
2023-07-02T17:35:40.669Z,45.30
2023-07-02T17:36:19.654Z,45.34
2023-07-02T17:36:56.546Z,45.45
2023-07-02T17:37:29.294Z,45.46
2023-07-02T17:38:01.880Z,45.53
2023-07-02T17:38:37.082Z,45.61
2023-07-02T17:39:10.130Z,45.77
2023-07-02T17:39:42.825Z,45.61
2023-07-02T17:40:15.528Z,45.49
2023-07-02T17:40:48.120Z,45.49
2023-07-02T17:41:22.907Z,45.45
2023-07-02T17:41:57.104Z,45.17
2023-07-02T17:42:29.666Z,44.80
2023-07-02T17:43:02.279Z,44.77
2023-07-02T17:43:34.838Z,44.71
2023-07-02T17:44:08.824Z,44.75
2023-07-02T17:44:46.450Z,44.87
2023-07-02T17:45:19.254Z,44.80
2023-07-02T17:45:58.280Z,44.87
2023-07-02T17:46:42.225Z,45.00
2023-07-02T17:47:19.217Z,44.81
2023-07-02T17:47:52.296Z,44.74
2023-07-02T17:48:27.112Z,44.68
2023-07-02T17:49:00.936Z,44.73
2023-07-02T17:49:36.413Z,44.35
2023-07-02T17:50:13.282Z,44.32
2023-07-02T17:51:02.405Z,43.97
2023-07-02T17:51:36.128Z,43.89
2023-07-02T17:52:11.726Z,43.84
2023-07-02T17:52:44.271Z,43.72
2023-07-02T17:53:16.843Z,43.69
2023-07-02T17:53:49.428Z,43.58
2023-07-02T17:54:23.056Z,43.59
2023-07-02T17:54:55.840Z,43.60
2023-07-02T17:55:29.883Z,43.54
2023-07-02T17:56:03.185Z,43.58
2023-07-02T17:56:36.279Z,43.45
2023-07-02T17:57:45.665Z,43.51
2023-07-02T17:58:18.224Z,43.62
2023-07-02T17:58:54.452Z,43.48
2023-07-02T17:59:28.493Z,43.43
2023-07-02T18:00:01.421Z,43.29
2023-07-02T18:00:34.322Z,43.44
2023-07-02T18:01:06.922Z,43.58
2023-07-02T18:01:44.126Z,43.57
2023-07-02T18:02:18.260Z,43.51
2023-07-02T18:02:50.897Z,43.49
2023-07-02T18:03:23.658Z,43.51
2023-07-02T18:03:59.606Z,43.62
2023-07-02T18:05:06.894Z,43.51
2023-07-02T18:05:40.705Z,43.47
2023-07-02T18:06:13.463Z,43.62
2023-07-02T18:06:47.443Z,43.62
2023-07-02T18:07:21.428Z,43.61
2023-07-02T18:07:54.119Z,43.63
2023-07-02T18:08:26.652Z,43.71
2023-07-02T18:08:59.837Z,43.55
2023-07-02T18:09:32.728Z,43.79
2023-07-02T18:10:05.547Z,43.93
2023-07-02T18:10:38.101Z,43.84
2023-07-02T18:11:11.738Z,43.79
2023-07-02T18:11:44.473Z,43.72
2023-07-02T18:12:19.660Z,43.90
2023-07-02T18:12:52.384Z,43.86
2023-07-02T18:13:25.510Z,43.80
2023-07-02T18:13:58.731Z,44.02
2023-07-02T18:14:32.772Z,44.00
2023-07-02T18:15:05.962Z,44.01
2023-07-02T18:15:38.494Z,44.02
2023-07-02T18:16:11.261Z,44.06
2023-07-02T18:16:43.838Z,43.99
2023-07-02T18:17:17.929Z,43.97
2023-07-02T18:17:51.425Z,43.92
2023-07-02T18:18:24.115Z,44.13
2023-07-02T18:18:56.735Z,44.17
2023-07-02T18:19:30.445Z,44.29
2023-07-02T18:20:03.461Z,44.36
2023-07-02T18:20:36.736Z,44.47
2023-07-02T18:21:12.940Z,44.60
2023-07-02T18:21:45.562Z,44.46
2023-07-02T18:22:18.623Z,44.36
2023-07-02T18:22:51.211Z,44.31
2023-07-02T18:23:24.934Z,44.44
2023-07-02T18:23:59.332Z,44.35
2023-07-02T18:24:33.743Z,44.48
2023-07-02T18:25:07.689Z,44.63
2023-07-02T18:25:40.265Z,44.73
2023-07-02T18:26:12.812Z,44.90
2023-07-02T18:26:45.370Z,45.02
2023-07-02T18:27:18.056Z,44.97
2023-07-02T18:28:11.299Z,45.05
2023-07-02T18:28:43.922Z,45.21
2023-07-02T18:29:18.724Z,45.25
2023-07-02T18:29:51.561Z,45.27
2023-07-02T18:30:24.071Z,45.42
2023-07-02T18:30:57.279Z,45.36
2023-07-02T18:31:29.940Z,45.34
2023-07-02T18:32:06.314Z,45.31
2023-07-02T18:32:39.115Z,45.46
2023-07-02T18:33:11.675Z,45.51
2023-07-02T18:33:44.204Z,45.59
2023-07-02T18:34:17.663Z,45.73
2023-07-02T18:34:50.233Z,45.59
2023-07-02T18:35:22.781Z,45.48
2023-07-02T18:35:55.330Z,45.48
2023-07-02T18:36:27.813Z,45.75
2023-07-02T18:37:02.357Z,45.95
2023-07-02T18:37:37.301Z,46.08
2023-07-02T18:38:10.605Z,46.00
2023-07-02T18:38:43.296Z,46.08
2023-07-02T18:39:19.535Z,46.27
2023-07-02T18:39:52.019Z,46.17
2023-07-02T18:40:24.535Z,46.34
2023-07-02T18:41:06.742Z,46.43
2023-07-02T18:41:39.514Z,46.32
2023-07-02T18:42:13.524Z,46.23
2023-07-02T18:42:47.826Z,46.44
2023-07-02T18:43:20.505Z,46.53
2023-07-02T18:43:53.047Z,46.73
2023-07-02T18:44:29.016Z,46.92
2023-07-02T18:45:01.581Z,46.99
2023-07-02T18:45:34.351Z,47.05
2023-07-02T18:46:07.602Z,47.19
2023-07-02T18:46:41.820Z,47.16
2023-07-02T18:47:14.460Z,47.28
2023-07-02T18:47:47.025Z,47.39
2023-07-02T18:48:21.472Z,47.33
2023-07-02T18:48:53.994Z,47.52
2023-07-02T18:49:26.533Z,47.60
2023-07-02T18:49:59.101Z,47.60
2023-07-02T18:50:32.234Z,47.63
2023-07-02T18:51:06.480Z,47.73
2023-07-02T18:51:39.291Z,47.79
2023-07-02T18:52:14.840Z,47.86
2023-07-02T18:52:47.784Z,47.89
2023-07-02T18:53:22.170Z,47.87
2023-07-02T18:53:55.055Z,48.03
2023-07-02T18:54:27.609Z,48.05
2023-07-02T18:55:00.196Z,48.05
2023-07-02T18:55:32.759Z,48.07
2023-07-02T18:56:07.604Z,48.16
2023-07-02T18:56:43.227Z,48.26
2023-07-02T18:57:17.303Z,48.35
2023-07-02T18:57:49.893Z,48.32
2023-07-02T18:58:22.629Z,48.23
2023-07-02T18:58:55.130Z,48.35
2023-07-02T18:59:27.673Z,48.54
2023-07-02T19:00:00.579Z,48.62
2023-07-02T19:00:33.144Z,48.69
2023-07-02T19:01:11.247Z,48.67
2023-07-02T19:01:43.892Z,48.76
2023-07-02T19:02:17.012Z,48.78
2023-07-02T19:02:50.350Z,48.74
2023-07-02T19:03:23.403Z,48.86
2023-07-02T19:03:58.985Z,49.02
2023-07-02T19:04:31.984Z,48.83
2023-07-02T19:05:06.509Z,48.87
2023-07-02T19:05:39.046Z,49.04
2023-07-02T19:06:11.617Z,49.10
2023-07-02T19:06:44.568Z,49.17
2023-07-02T19:07:20.318Z,49.18
2023-07-02T19:07:52.916Z,49.12
2023-07-02T19:08:25.522Z,48.97
2023-07-02T19:08:58.084Z,49.06
2023-07-02T19:09:30.982Z,49.10
2023-07-02T19:10:04.826Z,49.01
2023-07-02T19:10:38.610Z,48.90
2023-07-02T19:11:11.493Z,48.99
2023-07-02T19:11:44.137Z,48.86
2023-07-02T19:12:16.981Z,48.84
2023-07-02T19:12:49.520Z,48.88
2023-07-02T19:13:22.113Z,49.04
2023-07-02T19:13:56.584Z,48.99
2023-07-02T19:14:30.847Z,48.94
2023-07-02T19:15:04.676Z,48.90
2023-07-02T19:15:37.304Z,49.05
2023-07-02T19:16:09.954Z,49.09
2023-07-02T19:16:42.654Z,48.97
2023-07-02T19:17:16.748Z,48.98
2023-07-02T19:17:49.527Z,49.04
2023-07-02T19:18:23.441Z,49.08
2023-07-02T19:18:55.966Z,49.14
2023-07-02T19:19:28.604Z,49.27
2023-07-02T19:20:03.186Z,49.10
2023-07-02T19:20:36.343Z,48.91
2023-07-02T19:21:14.767Z,49.09
2023-07-02T19:21:47.354Z,49.05
2023-07-02T19:22:23.624Z,48.99
2023-07-02T19:22:56.564Z,48.98
2023-07-02T19:23:32.388Z,48.77
2023-07-02T19:24:05.432Z,48.96
2023-07-02T19:24:38.628Z,49.01
2023-07-02T19:25:11.876Z,49.06
2023-07-02T19:25:46.255Z,49.06
2023-07-02T19:26:18.858Z,49.01
2023-07-02T19:26:52.634Z,49.01
2023-07-02T19:27:25.163Z,48.98
2023-07-02T19:27:57.753Z,48.93
2023-07-02T19:28:30.315Z,48.86
2023-07-02T19:29:03.565Z,48.87
2023-07-02T19:29:37.175Z,48.91
2023-07-02T19:30:10.055Z,48.93
2023-07-02T19:30:42.636Z,49.03
2023-07-02T19:31:15.775Z,49.12
2023-07-02T19:31:48.683Z,49.15
2023-07-02T19:32:21.345Z,49.19
2023-07-02T19:32:54.352Z,49.10
2023-07-02T19:33:27.083Z,49.27
2023-07-02T19:33:59.664Z,49.25
2023-07-02T19:34:32.395Z,49.22
2023-07-02T19:35:09.828Z,49.31
2023-07-02T19:35:42.369Z,49.45
2023-07-02T19:36:14.901Z,49.33
2023-07-02T19:36:48.257Z,49.28
2023-07-02T19:37:22.676Z,49.41
2023-07-02T19:37:55.231Z,49.53
2023-07-02T19:38:30.667Z,49.63
2023-07-02T19:39:03.322Z,49.79
2023-07-02T19:39:35.880Z,49.75
2023-07-02T19:40:08.885Z,49.86
2023-07-02T19:40:42.181Z,49.70
2023-07-02T19:41:15.033Z,49.69
2023-07-02T19:41:48.008Z,49.68
2023-07-02T19:42:20.568Z,49.74
2023-07-02T19:42:53.200Z,49.79
2023-07-02T19:43:26.905Z,49.97
2023-07-02T19:43:59.518Z,49.75
2023-07-02T19:44:32.079Z,49.67
2023-07-02T19:45:06.403Z,49.66
2023-07-02T19:45:40.221Z,49.79
2023-07-02T19:46:12.822Z,49.63
2023-07-02T19:46:45.929Z,49.68
2023-07-02T19:47:18.536Z,49.80
2023-07-02T19:47:51.171Z,49.91
2023-07-02T19:48:23.839Z,49.91
2023-07-02T19:48:57.196Z,49.81
2023-07-02T19:49:31.243Z,49.86
2023-07-02T19:50:03.936Z,49.94
2023-07-02T19:50:36.462Z,49.93
2023-07-02T19:51:09.071Z,49.96
2023-07-02T19:51:47.897Z,49.93
2023-07-02T19:52:22.083Z,49.89
2023-07-02T19:52:54.657Z,49.84
2023-07-02T19:53:27.343Z,50.17
2023-07-02T19:54:01.303Z,50.19
2023-07-02T19:54:33.884Z,50.15
2023-07-02T19:55:12.018Z,50.41
2023-07-02T19:55:44.984Z,50.39
2023-07-02T19:56:17.962Z,50.33
2023-07-02T19:56:51.675Z,50.38
2023-07-02T19:57:24.262Z,50.33
2023-07-02T19:57:56.889Z,50.28
2023-07-02T19:58:29.500Z,50.26
2023-07-02T19:59:02.075Z,49.89
2023-07-02T19:59:34.628Z,49.87
2023-07-02T20:00:09.735Z,49.92
2023-07-02T20:00:43.395Z,49.98
2023-07-02T20:01:17.300Z,50.17
2023-07-02T20:01:49.847Z,50.25
2023-07-02T20:02:22.953Z,50.35
2023-07-02T20:02:55.953Z,50.44
2023-07-02T20:03:28.860Z,50.52
2023-07-02T20:04:01.660Z,50.61
2023-07-02T20:04:34.518Z,50.20
2023-07-02T20:05:08.051Z,50.26
2023-07-02T20:05:41.779Z,50.36
2023-07-02T20:06:15.242Z,50.45
2023-07-02T20:06:48.557Z,50.74
2023-07-02T20:07:21.137Z,50.88
2023-07-02T20:07:53.720Z,50.96
2023-07-02T20:08:26.273Z,50.83
2023-07-02T20:08:59.179Z,50.43
2023-07-02T20:09:32.442Z,50.50
2023-07-02T20:10:08.465Z,50.63
2023-07-02T20:10:41.578Z,50.72
2023-07-02T20:11:20.285Z,50.77
2023-07-02T20:11:59.955Z,50.73
2023-07-02T20:12:32.546Z,50.67
2023-07-02T20:13:05.047Z,50.57
2023-07-02T20:13:37.821Z,50.65
2023-07-02T20:14:10.362Z,50.78
2023-07-02T20:14:46.314Z,50.83
2023-07-02T20:15:18.914Z,50.85
2023-07-02T20:15:54.304Z,50.89
2023-07-02T20:16:31.713Z,50.87
2023-07-02T20:17:05.574Z,51.02
2023-07-02T20:17:38.568Z,51.03
2023-07-02T20:18:11.589Z,50.91
2023-07-02T20:18:44.128Z,50.85
2023-07-02T20:19:21.258Z,50.86
2023-07-02T20:20:04.223Z,50.93
2023-07-02T20:20:37.027Z,50.98
2023-07-02T20:21:10.108Z,51.08
2023-07-02T20:21:44.849Z,50.99
2023-07-02T20:22:19.221Z,51.05
2023-07-02T20:22:52.463Z,51.03
2023-07-02T20:23:27.802Z,51.06
2023-07-02T20:24:02.787Z,51.13
2023-07-02T20:24:36.928Z,51.00
2023-07-02T20:25:43.891Z,50.93
2023-07-02T20:26:02.185Z,51.25
2023-07-02T20:26:35.430Z,51.19
2023-07-02T20:27:08.220Z,51.18
2023-07-02T20:27:40.864Z,51.33
2023-07-02T20:28:15.981Z,51.33
2023-07-02T20:28:48.595Z,51.34
2023-07-02T20:29:21.973Z,51.24
2023-07-02T20:29:55.675Z,51.30
2023-07-02T20:30:29.590Z,51.36
2023-07-02T20:31:04.508Z,51.35
2023-07-02T20:31:37.498Z,51.45
2023-07-02T20:32:10.134Z,51.47
2023-07-02T20:32:42.700Z,51.59
2023-07-02T20:33:15.316Z,51.47
2023-07-02T20:33:47.966Z,51.42
2023-07-02T20:34:24.780Z,51.64
2023-07-02T20:34:57.446Z,51.85
2023-07-02T20:35:32.876Z,51.90
2023-07-02T20:36:07.518Z,51.78
2023-07-02T20:36:40.166Z,51.83
2023-07-02T20:37:14.186Z,51.85
2023-07-02T20:37:50.760Z,51.90
2023-07-02T20:38:23.315Z,52.15
2023-07-02T20:39:00.237Z,52.04
2023-07-02T20:39:33.107Z,51.78
2023-07-02T20:40:14.323Z,52.18
2023-07-02T20:41:02.938Z,52.32
2023-07-02T20:41:35.698Z,52.35
2023-07-02T20:42:09.361Z,52.32
2023-07-02T20:42:42.400Z,52.27
2023-07-02T20:43:15.518Z,52.23
2023-07-02T20:43:48.491Z,52.35
2023-07-02T20:44:21.648Z,52.45
2023-07-02T20:44:54.243Z,52.47
2023-07-02T20:45:31.236Z,52.57
2023-07-02T20:46:05.765Z,52.57
2023-07-02T20:46:47.149Z,52.72
2023-07-02T20:47:22.421Z,52.69
2023-07-02T20:47:55.072Z,52.80
2023-07-02T20:48:30.533Z,52.74
2023-07-02T20:49:06.323Z,52.84
2023-07-02T20:49:39.172Z,52.87
2023-07-02T20:50:14.565Z,53.11
2023-07-02T20:50:47.245Z,52.67
2023-07-02T20:51:19.808Z,52.63
2023-07-02T20:51:52.353Z,52.81
2023-07-02T20:52:25.160Z,52.86
2023-07-02T20:52:58.633Z,52.81
2023-07-02T20:53:31.564Z,52.95
2023-07-02T20:54:04.112Z,52.96
2023-07-02T20:54:36.615Z,52.64
2023-07-02T20:55:09.751Z,52.69
2023-07-02T20:55:42.255Z,52.92
2023-07-02T20:56:15.654Z,52.98
2023-07-02T20:56:51.864Z,52.94
2023-07-02T20:57:24.500Z,53.02
2023-07-02T20:57:57.039Z,53.07
2023-07-02T20:58:30.629Z,53.08
2023-07-02T20:59:03.234Z,53.14
2023-07-02T20:59:35.791Z,53.08
2023-07-02T21:00:12.372Z,53.11
2023-07-02T21:01:00.776Z,53.13
2023-07-02T21:01:39.782Z,53.11
2023-07-02T21:02:14.957Z,53.15
2023-07-02T21:02:47.652Z,53.13
2023-07-02T21:03:20.385Z,53.04
2023-07-02T21:03:53.178Z,53.08
2023-07-02T21:04:25.882Z,53.11
2023-07-02T21:05:01.085Z,53.06
2023-07-02T21:05:33.627Z,53.07
2023-07-02T21:06:11.167Z,53.18
2023-07-02T21:06:43.805Z,53.20
2023-07-02T21:07:17.220Z,53.27
2023-07-02T21:07:50.004Z,53.31
2023-07-02T21:08:22.647Z,53.24
2023-07-02T21:08:55.277Z,53.25
2023-07-02T21:09:30.530Z,53.29
2023-07-02T21:10:04.959Z,53.31
2023-07-02T21:10:57.384Z,53.26
2023-07-02T21:11:34.312Z,53.39
2023-07-02T21:12:07.563Z,53.37
2023-07-02T21:12:40.132Z,53.29
2023-07-02T21:13:12.684Z,53.31
2023-07-02T21:13:46.313Z,53.25
2023-07-02T21:14:18.815Z,53.20
2023-07-02T21:14:52.979Z,53.38
2023-07-02T21:15:25.559Z,53.34
2023-07-02T21:16:00.496Z,53.31
2023-07-02T21:16:33.081Z,53.33
2023-07-02T21:17:08.606Z,53.42
2023-07-02T21:17:41.884Z,53.48
2023-07-02T21:18:14.439Z,53.54
2023-07-02T21:18:46.954Z,53.51
2023-07-02T21:19:20.149Z,53.51
2023-07-02T21:19:52.919Z,53.48
2023-07-02T21:20:26.615Z,53.42
2023-07-02T21:21:00.054Z,53.39
2023-07-02T21:21:32.798Z,53.44
2023-07-02T21:22:05.479Z,53.33
2023-07-02T21:22:40.641Z,53.15
2023-07-02T21:23:13.198Z,53.23
2023-07-02T21:23:45.870Z,53.28
2023-07-02T21:24:18.961Z,53.27
2023-07-02T21:24:52.074Z,53.20
2023-07-02T21:25:25.598Z,53.25
2023-07-02T21:26:48.178Z,53.31
2023-07-02T21:27:20.685Z,53.21
2023-07-02T21:27:53.183Z,53.25
2023-07-02T21:28:28.085Z,53.19
2023-07-02T21:29:00.655Z,53.37
2023-07-02T21:29:33.213Z,53.40
2023-07-02T21:30:06.505Z,53.32
2023-07-02T21:30:39.199Z,53.24
2023-07-02T21:31:15.316Z,53.16
2023-07-02T21:31:50.724Z,53.14
2023-07-02T21:32:23.659Z,53.13
2023-07-02T21:32:56.305Z,53.09
2023-07-02T21:33:28.906Z,53.23
2023-07-02T21:34:02.249Z,53.22
2023-07-02T21:34:36.946Z,53.17
2023-07-02T21:35:10.991Z,53.15
2023-07-02T21:35:43.490Z,53.18
2023-07-02T21:36:16.885Z,53.23
2023-07-02T21:36:51.813Z,53.27
2023-07-02T21:37:25.607Z,53.25
2023-07-02T21:37:58.178Z,53.18
2023-07-02T21:38:30.716Z,53.32
2023-07-02T21:39:03.943Z,53.29
2023-07-02T21:39:36.515Z,53.25
2023-07-02T21:40:09.457Z,53.27
2023-07-02T21:40:42.008Z,53.33
2023-07-02T21:41:16.290Z,53.30
2023-07-02T21:41:48.945Z,53.39
2023-07-02T21:42:23.852Z,53.47